sensor_id;sensor_type;location;lat;lon;timestamp;P1;durP1;ratioP1;P2;durP2;ratioP2
68951;SDS011;56000;51.146;17.112;2023-06-14T00:00:04;5.70;;;3.80;;
68951;SDS011;56000;51.146;17.112;2023-06-14T00:02:40;5.80;;;4.00;;
68951;SDS011;56000;51.146;17.112;2023-06-14T00:05:13;7.00;;;3.90;;
68951;SDS011;56000;51.146;17.112;2023-06-14T00:07:46;7.90;;;4.10;;
68951;SDS011;56000;51.146;17.112;2023-06-14T00:10:23;6.80;;;4.30;;
68951;SDS011;56000;51.146;17.112;2023-06-14T00:13:00;7.10;;;4.10;;
68951;SDS011;56000;51.146;17.112;2023-06-14T00:15:33;5.80;;;4.30;;
68951;SDS011;56000;51.146;17.112;2023-06-14T00:18:07;7.60;;;4.40;;
68951;SDS011;56000;51.146;17.112;2023-06-14T00:20:41;5.20;;;4.00;;
68951;SDS011;56000;51.146;17.112;2023-06-14T00:23:15;7.30;;;3.90;;
68951;SDS011;56000;51.146;17.112;2023-06-14T00:25:48;5.80;;;4.00;;
68951;SDS011;56000;51.146;17.112;2023-06-14T00:28:21;6.10;;;3.90;;
68951;SDS011;56000;51.146;17.112;2023-06-14T00:30:55;6.40;;;3.80;;
68951;SDS011;56000;51.146;17.112;2023-06-14T00:33:30;5.50;;;3.90;;
68951;SDS011;56000;51.146;17.112;2023-06-14T00:36:04;10.40;;;4.40;;
68951;SDS011;56000;51.146;17.112;2023-06-14T00:38:37;5.80;;;4.20;;
68951;SDS011;56000;51.146;17.112;2023-06-14T00:41:11;6.00;;;3.80;;
68951;SDS011;56000;51.146;17.112;2023-06-14T00:43:44;7.10;;;4.10;;
68951;SDS011;56000;51.146;17.112;2023-06-14T00:46:17;8.10;;;4.50;;
68951;SDS011;56000;51.146;17.112;2023-06-14T00:48:52;9.90;;;3.70;;
68951;SDS011;56000;51.146;17.112;2023-06-14T00:51:26;5.90;;;3.90;;
68951;SDS011;56000;51.146;17.112;2023-06-14T00:53:59;5.50;;;3.50;;
68951;SDS011;56000;51.146;17.112;2023-06-14T00:56:32;6.30;;;4.50;;
68951;SDS011;56000;51.146;17.112;2023-06-14T00:59:06;10.00;;;4.10;;
68951;SDS011;56000;51.146;17.112;2023-06-14T01:01:41;6.50;;;3.90;;
68951;SDS011;56000;51.146;17.112;2023-06-14T01:04:14;6.70;;;4.10;;
68951;SDS011;56000;51.146;17.112;2023-06-14T01:07:05;5.70;;;4.10;;
68951;SDS011;56000;51.146;17.112;2023-06-14T01:09:51;4.80;;;3.40;;
68951;SDS011;56000;51.146;17.112;2023-06-14T01:12:37;9.40;;;4.30;;
68951;SDS011;56000;51.146;17.112;2023-06-14T01:15:15;6.50;;;3.60;;
68951;SDS011;56000;51.146;17.112;2023-06-14T01:17:50;7.40;;;4.40;;
68951;SDS011;56000;51.146;17.112;2023-06-14T01:20:27;6.30;;;3.60;;
68951;SDS011;56000;51.146;17.112;2023-06-14T01:23:02;7.10;;;4.20;;
68951;SDS011;56000;51.146;17.112;2023-06-14T01:25:36;6.20;;;3.80;;
68951;SDS011;56000;51.146;17.112;2023-06-14T01:28:15;5.20;;;4.00;;
68951;SDS011;56000;51.146;17.112;2023-06-14T01:30:50;14.70;;;4.30;;
68951;SDS011;56000;51.146;17.112;2023-06-14T01:33:26;5.60;;;3.50;;
68951;SDS011;56000;51.146;17.112;2023-06-14T01:36:00;4.30;;;3.50;;
68951;SDS011;56000;51.146;17.112;2023-06-14T01:38:36;8.60;;;4.20;;
68951;SDS011;56000;51.146;17.112;2023-06-14T01:41:11;8.90;;;4.40;;
68951;SDS011;56000;51.146;17.112;2023-06-14T01:43:45;7.30;;;4.60;;
68951;SDS011;56000;51.146;17.112;2023-06-14T01:46:19;6.80;;;4.40;;
68951;SDS011;56000;51.146;17.112;2023-06-14T01:48:52;6.10;;;4.20;;
68951;SDS011;56000;51.146;17.112;2023-06-14T01:51:25;5.80;;;4.20;;
68951;SDS011;56000;51.146;17.112;2023-06-14T01:53:58;7.60;;;3.90;;
68951;SDS011;56000;51.146;17.112;2023-06-14T01:56:33;7.00;;;4.40;;
68951;SDS011;56000;51.146;17.112;2023-06-14T01:59:07;7.40;;;4.30;;
68951;SDS011;56000;51.146;17.112;2023-06-14T02:01:40;7.50;;;4.30;;
68951;SDS011;56000;51.146;17.112;2023-06-14T02:04:13;7.50;;;4.50;;
68951;SDS011;56000;51.146;17.112;2023-06-14T02:06:46;7.00;;;4.30;;
68951;SDS011;56000;51.146;17.112;2023-06-14T02:09:20;8.10;;;5.00;;
68951;SDS011;56000;51.146;17.112;2023-06-14T02:11:56;7.10;;;5.20;;
68951;SDS011;56000;51.146;17.112;2023-06-14T02:14:29;8.60;;;4.60;;
68951;SDS011;56000;51.146;17.112;2023-06-14T02:17:03;8.00;;;4.80;;
68951;SDS011;56000;51.146;17.112;2023-06-14T02:19:37;9.10;;;4.40;;
68951;SDS011;56000;51.146;17.112;2023-06-14T02:22:10;6.40;;;4.00;;
68951;SDS011;56000;51.146;17.112;2023-06-14T02:24:44;5.40;;;3.80;;
68951;SDS011;56000;51.146;17.112;2023-06-14T02:27:25;7.20;;;4.80;;
68951;SDS011;56000;51.146;17.112;2023-06-14T02:29:58;12.30;;;5.10;;
68951;SDS011;56000;51.146;17.112;2023-06-14T02:32:31;8.60;;;4.70;;
68951;SDS011;56000;51.146;17.112;2023-06-14T02:35:09;6.20;;;3.90;;
68951;SDS011;56000;51.146;17.112;2023-06-14T02:37:43;8.60;;;4.80;;
68951;SDS011;56000;51.146;17.112;2023-06-14T02:40:17;10.10;;;5.40;;
68951;SDS011;56000;51.146;17.112;2023-06-14T02:42:50;5.40;;;4.00;;
68951;SDS011;56000;51.146;17.112;2023-06-14T02:45:23;5.50;;;3.70;;
68951;SDS011;56000;51.146;17.112;2023-06-14T02:47:56;6.30;;;4.30;;
68951;SDS011;56000;51.146;17.112;2023-06-14T02:50:30;8.90;;;4.60;;
68951;SDS011;56000;51.146;17.112;2023-06-14T02:53:03;6.50;;;4.40;;
68951;SDS011;56000;51.146;17.112;2023-06-14T02:55:36;12.40;;;4.80;;
68951;SDS011;56000;51.146;17.112;2023-06-14T02:58:10;8.50;;;4.70;;
68951;SDS011;56000;51.146;17.112;2023-06-14T03:00:44;11.60;;;5.30;;
68951;SDS011;56000;51.146;17.112;2023-06-14T03:03:18;7.60;;;4.20;;
68951;SDS011;56000;51.146;17.112;2023-06-14T03:05:54;10.40;;;4.40;;
68951;SDS011;56000;51.146;17.112;2023-06-14T03:08:29;8.20;;;5.10;;
68951;SDS011;56000;51.146;17.112;2023-06-14T03:11:11;5.30;;;4.10;;
68951;SDS011;56000;51.146;17.112;2023-06-14T03:13:44;12.10;;;4.40;;
68951;SDS011;56000;51.146;17.112;2023-06-14T03:16:18;6.60;;;4.50;;
68951;SDS011;56000;51.146;17.112;2023-06-14T03:18:54;7.90;;;4.50;;
68951;SDS011;56000;51.146;17.112;2023-06-14T03:21:29;7.50;;;4.60;;
68951;SDS011;56000;51.146;17.112;2023-06-14T03:24:03;6.40;;;3.80;;
68951;SDS011;56000;51.146;17.112;2023-06-14T03:26:38;8.60;;;4.90;;
68951;SDS011;56000;51.146;17.112;2023-06-14T03:29:11;8.80;;;4.30;;
68951;SDS011;56000;51.146;17.112;2023-06-14T03:31:58;6.90;;;4.20;;
68951;SDS011;56000;51.146;17.112;2023-06-14T03:34:37;22.60;;;4.60;;
68951;SDS011;56000;51.146;17.112;2023-06-14T03:37:16;8.50;;;4.30;;
68951;SDS011;56000;51.146;17.112;2023-06-14T03:39:49;7.80;;;4.70;;
68951;SDS011;56000;51.146;17.112;2023-06-14T03:42:24;6.40;;;4.70;;
68951;SDS011;56000;51.146;17.112;2023-06-14T03:44:57;6.80;;;4.40;;
68951;SDS011;56000;51.146;17.112;2023-06-14T03:47:31;7.80;;;4.50;;
68951;SDS011;56000;51.146;17.112;2023-06-14T03:50:06;8.50;;;5.40;;
68951;SDS011;56000;51.146;17.112;2023-06-14T03:52:39;10.80;;;5.00;;
68951;SDS011;56000;51.146;17.112;2023-06-14T03:55:14;9.80;;;5.30;;
68951;SDS011;56000;51.146;17.112;2023-06-14T03:57:50;6.70;;;4.20;;
68951;SDS011;56000;51.146;17.112;2023-06-14T04:00:24;8.30;;;4.60;;
68951;SDS011;56000;51.146;17.112;2023-06-14T04:02:57;8.40;;;5.30;;
68951;SDS011;56000;51.146;17.112;2023-06-14T04:05:32;10.00;;;5.60;;
68951;SDS011;56000;51.146;17.112;2023-06-14T04:08:06;8.30;;;5.00;;
68951;SDS011;56000;51.146;17.112;2023-06-14T04:10:40;9.80;;;4.90;;
68951;SDS011;56000;51.146;17.112;2023-06-14T04:13:13;10.70;;;5.60;;
68951;SDS011;56000;51.146;17.112;2023-06-14T04:15:47;10.50;;;4.80;;
68951;SDS011;56000;51.146;17.112;2023-06-14T04:18:26;8.50;;;5.10;;
68951;SDS011;56000;51.146;17.112;2023-06-14T04:20:59;15.30;;;5.60;;
68951;SDS011;56000;51.146;17.112;2023-06-14T04:23:32;10.90;;;5.20;;
68951;SDS011;56000;51.146;17.112;2023-06-14T04:26:06;16.00;;;5.90;;
68951;SDS011;56000;51.146;17.112;2023-06-14T04:28:42;15.90;;;6.00;;
68951;SDS011;56000;51.146;17.112;2023-06-14T04:31:15;15.30;;;5.70;;
68951;SDS011;56000;51.146;17.112;2023-06-14T04:33:49;12.00;;;5.80;;
68951;SDS011;56000;51.146;17.112;2023-06-14T04:36:24;10.00;;;5.70;;
68951;SDS011;56000;51.146;17.112;2023-06-14T04:38:58;8.80;;;6.50;;
68951;SDS011;56000;51.146;17.112;2023-06-14T04:41:33;10.50;;;7.20;;
68951;SDS011;56000;51.146;17.112;2023-06-14T04:44:07;9.50;;;6.30;;
68951;SDS011;56000;51.146;17.112;2023-06-14T04:46:43;11.20;;;6.40;;
68951;SDS011;56000;51.146;17.112;2023-06-14T04:49:20;12.50;;;7.10;;
68951;SDS011;56000;51.146;17.112;2023-06-14T04:51:57;16.60;;;7.50;;
68951;SDS011;56000;51.146;17.112;2023-06-14T04:54:43;11.70;;;7.50;;
68951;SDS011;56000;51.146;17.112;2023-06-14T04:57:20;12.70;;;7.60;;
68951;SDS011;56000;51.146;17.112;2023-06-14T04:59:58;12.20;;;7.60;;
68951;SDS011;56000;51.146;17.112;2023-06-14T05:02:36;12.20;;;8.20;;
68951;SDS011;56000;51.146;17.112;2023-06-14T05:05:11;14.00;;;8.70;;
68951;SDS011;56000;51.146;17.112;2023-06-14T05:07:46;12.00;;;7.80;;
68951;SDS011;56000;51.146;17.112;2023-06-14T05:10:20;9.90;;;6.90;;
68951;SDS011;56000;51.146;17.112;2023-06-14T05:12:53;13.70;;;8.50;;
68951;SDS011;56000;51.146;17.112;2023-06-14T05:15:26;14.10;;;9.30;;
68951;SDS011;56000;51.146;17.112;2023-06-14T05:18:00;12.70;;;8.40;;
68951;SDS011;56000;51.146;17.112;2023-06-14T05:20:33;10.90;;;8.70;;
68951;SDS011;56000;51.146;17.112;2023-06-14T05:23:08;13.20;;;8.50;;
68951;SDS011;56000;51.146;17.112;2023-06-14T05:25:45;17.80;;;9.10;;
68951;SDS011;56000;51.146;17.112;2023-06-14T05:28:19;13.70;;;9.80;;
68951;SDS011;56000;51.146;17.112;2023-06-14T05:30:52;13.60;;;9.70;;
68951;SDS011;56000;51.146;17.112;2023-06-14T05:33:25;16.00;;;9.90;;
68951;SDS011;56000;51.146;17.112;2023-06-14T05:35:58;16.80;;;9.10;;
68951;SDS011;56000;51.146;17.112;2023-06-14T05:38:32;15.80;;;10.40;;
68951;SDS011;56000;51.146;17.112;2023-06-14T05:41:05;16.00;;;9.30;;
68951;SDS011;56000;51.146;17.112;2023-06-14T05:43:38;16.80;;;9.50;;
68951;SDS011;56000;51.146;17.112;2023-06-14T05:46:11;12.30;;;7.60;;
68951;SDS011;56000;51.146;17.112;2023-06-14T05:48:45;14.60;;;8.30;;
68951;SDS011;56000;51.146;17.112;2023-06-14T05:51:18;14.10;;;9.20;;
68951;SDS011;56000;51.146;17.112;2023-06-14T05:53:51;10.10;;;7.40;;
68951;SDS011;56000;51.146;17.112;2023-06-14T05:56:24;13.50;;;9.70;;
68951;SDS011;56000;51.146;17.112;2023-06-14T05:58:58;13.80;;;9.30;;
68951;SDS011;56000;51.146;17.112;2023-06-14T06:01:31;16.30;;;7.60;;
68951;SDS011;56000;51.146;17.112;2023-06-14T06:04:07;12.30;;;8.20;;
68951;SDS011;56000;51.146;17.112;2023-06-14T06:06:40;11.70;;;7.20;;
68951;SDS011;56000;51.146;17.112;2023-06-14T06:09:13;14.10;;;9.80;;
68951;SDS011;56000;51.146;17.112;2023-06-14T06:11:46;14.90;;;10.00;;
68951;SDS011;56000;51.146;17.112;2023-06-14T06:14:23;10.40;;;7.50;;
68951;SDS011;56000;51.146;17.112;2023-06-14T06:16:56;15.50;;;9.10;;
68951;SDS011;56000;51.146;17.112;2023-06-14T06:19:29;13.20;;;10.00;;
68951;SDS011;56000;51.146;17.112;2023-06-14T06:22:03;14.30;;;9.80;;
68951;SDS011;56000;51.146;17.112;2023-06-14T06:24:36;15.60;;;9.50;;
68951;SDS011;56000;51.146;17.112;2023-06-14T06:27:11;13.80;;;8.50;;
68951;SDS011;56000;51.146;17.112;2023-06-14T06:29:45;11.60;;;8.60;;
68951;SDS011;56000;51.146;17.112;2023-06-14T06:32:18;11.40;;;8.40;;
68951;SDS011;56000;51.146;17.112;2023-06-14T06:34:51;15.30;;;9.80;;
68951;SDS011;56000;51.146;17.112;2023-06-14T06:37:24;10.90;;;7.90;;
68951;SDS011;56000;51.146;17.112;2023-06-14T06:39:58;15.20;;;10.20;;
68951;SDS011;56000;51.146;17.112;2023-06-14T06:42:31;10.10;;;6.80;;
68951;SDS011;56000;51.146;17.112;2023-06-14T06:45:09;11.00;;;7.40;;
68951;SDS011;56000;51.146;17.112;2023-06-14T06:47:43;11.40;;;8.40;;
68951;SDS011;56000;51.146;17.112;2023-06-14T06:50:17;15.20;;;9.80;;
68951;SDS011;56000;51.146;17.112;2023-06-14T06:52:53;15.20;;;9.70;;
68951;SDS011;56000;51.146;17.112;2023-06-14T06:55:26;14.40;;;8.30;;
68951;SDS011;56000;51.146;17.112;2023-06-14T06:57:59;15.00;;;10.00;;
68951;SDS011;56000;51.146;17.112;2023-06-14T07:00:34;14.90;;;10.00;;
68951;SDS011;56000;51.146;17.112;2023-06-14T07:03:07;14.70;;;9.30;;
68951;SDS011;56000;51.146;17.112;2023-06-14T07:05:42;15.20;;;10.70;;
68951;SDS011;56000;51.146;17.112;2023-06-14T07:08:15;14.10;;;9.50;;
68951;SDS011;56000;51.146;17.112;2023-06-14T07:10:48;16.60;;;10.80;;
68951;SDS011;56000;51.146;17.112;2023-06-14T07:13:22;13.90;;;9.70;;
68951;SDS011;56000;51.146;17.112;2023-06-14T07:15:59;12.60;;;9.50;;
68951;SDS011;56000;51.146;17.112;2023-06-14T07:18:32;15.50;;;10.20;;
68951;SDS011;56000;51.146;17.112;2023-06-14T07:21:07;13.50;;;9.50;;
68951;SDS011;56000;51.146;17.112;2023-06-14T07:23:40;13.90;;;8.50;;
68951;SDS011;56000;51.146;17.112;2023-06-14T07:26:14;14.60;;;8.30;;
68951;SDS011;56000;51.146;17.112;2023-06-14T07:28:47;12.50;;;8.30;;
68951;SDS011;56000;51.146;17.112;2023-06-14T07:31:20;10.60;;;8.20;;
68951;SDS011;56000;51.146;17.112;2023-06-14T07:33:54;11.50;;;8.60;;
68951;SDS011;56000;51.146;17.112;2023-06-14T07:36:27;11.60;;;8.50;;
68951;SDS011;56000;51.146;17.112;2023-06-14T07:39:00;12.90;;;8.60;;
68951;SDS011;56000;51.146;17.112;2023-06-14T07:41:35;13.30;;;8.60;;
68951;SDS011;56000;51.146;17.112;2023-06-14T07:44:08;12.00;;;8.40;;
68951;SDS011;56000;51.146;17.112;2023-06-14T07:46:42;12.60;;;8.20;;
68951;SDS011;56000;51.146;17.112;2023-06-14T07:49:16;10.80;;;8.20;;
68951;SDS011;56000;51.146;17.112;2023-06-14T07:51:49;11.30;;;8.60;;
68951;SDS011;56000;51.146;17.112;2023-06-14T07:54:23;9.50;;;7.60;;
68951;SDS011;56000;51.146;17.112;2023-06-14T07:56:57;11.30;;;7.60;;
68951;SDS011;56000;51.146;17.112;2023-06-14T07:59:31;12.40;;;8.10;;
68951;SDS011;56000;51.146;17.112;2023-06-14T08:02:04;9.90;;;6.90;;
68951;SDS011;56000;51.146;17.112;2023-06-14T08:04:38;10.10;;;7.50;;
68951;SDS011;56000;51.146;17.112;2023-06-14T08:07:12;8.90;;;7.00;;
68951;SDS011;56000;51.146;17.112;2023-06-14T08:09:45;13.30;;;8.70;;
68951;SDS011;56000;51.146;17.112;2023-06-14T08:12:18;9.70;;;8.10;;
68951;SDS011;56000;51.146;17.112;2023-06-14T08:14:52;14.20;;;8.20;;
68951;SDS011;56000;51.146;17.112;2023-06-14T08:17:43;12.10;;;8.00;;
68951;SDS011;56000;51.146;17.112;2023-06-14T08:20:17;10.10;;;6.60;;
68951;SDS011;56000;51.146;17.112;2023-06-14T08:22:50;11.80;;;7.80;;
68951;SDS011;56000;51.146;17.112;2023-06-14T08:25:25;12.40;;;8.30;;
68951;SDS011;56000;51.146;17.112;2023-06-14T08:27:58;13.80;;;7.80;;
68951;SDS011;56000;51.146;17.112;2023-06-14T08:30:31;12.40;;;7.90;;
68951;SDS011;56000;51.146;17.112;2023-06-14T08:33:04;9.80;;;7.40;;
68951;SDS011;56000;51.146;17.112;2023-06-14T08:35:45;13.00;;;7.80;;
68951;SDS011;56000;51.146;17.112;2023-06-14T08:38:18;13.50;;;8.50;;
68951;SDS011;56000;51.146;17.112;2023-06-14T08:40:52;9.60;;;6.10;;
68951;SDS011;56000;51.146;17.112;2023-06-14T08:43:28;9.80;;;7.40;;
68951;SDS011;56000;51.146;17.112;2023-06-14T08:46:03;12.50;;;7.60;;
68951;SDS011;56000;51.146;17.112;2023-06-14T08:48:38;10.00;;;6.90;;
68951;SDS011;56000;51.146;17.112;2023-06-14T08:51:13;11.40;;;6.70;;
68951;SDS011;56000;51.146;17.112;2023-06-14T08:53:47;8.90;;;6.70;;
68951;SDS011;56000;51.146;17.112;2023-06-14T08:56:24;9.00;;;6.80;;
68951;SDS011;56000;51.146;17.112;2023-06-14T08:59:00;7.80;;;5.70;;
68951;SDS011;56000;51.146;17.112;2023-06-14T09:01:36;6.30;;;5.00;;
68951;SDS011;56000;51.146;17.112;2023-06-14T09:04:21;9.50;;;5.70;;
68951;SDS011;56000;51.146;17.112;2023-06-14T09:06:55;9.00;;;5.20;;
68951;SDS011;56000;51.146;17.112;2023-06-14T09:09:33;10.20;;;4.70;;
68951;SDS011;56000;51.146;17.112;2023-06-14T09:12:31;6.70;;;4.80;;
68951;SDS011;56000;51.146;17.112;2023-06-14T09:15:06;6.60;;;4.70;;
68951;SDS011;56000;51.146;17.112;2023-06-14T09:17:40;6.50;;;4.80;;
68951;SDS011;56000;51.146;17.112;2023-06-14T09:20:14;8.10;;;4.60;;
68951;SDS011;56000;51.146;17.112;2023-06-14T09:22:49;12.70;;;4.50;;
68951;SDS011;56000;51.146;17.112;2023-06-14T09:25:23;4.80;;;3.90;;
68951;SDS011;56000;51.146;17.112;2023-06-14T09:28:09;5.60;;;4.30;;
68951;SDS011;56000;51.146;17.112;2023-06-14T09:30:42;6.00;;;4.30;;
68951;SDS011;56000;51.146;17.112;2023-06-14T09:33:19;6.60;;;4.10;;
68951;SDS011;56000;51.146;17.112;2023-06-14T09:35:55;10.50;;;4.50;;
68951;SDS011;56000;51.146;17.112;2023-06-14T09:38:28;7.20;;;4.00;;
68951;SDS011;56000;51.146;17.112;2023-06-14T09:41:03;6.10;;;4.30;;
68951;SDS011;56000;51.146;17.112;2023-06-14T09:43:36;11.20;;;4.30;;
68951;SDS011;56000;51.146;17.112;2023-06-14T09:46:10;10.10;;;4.40;;
68951;SDS011;56000;51.146;17.112;2023-06-14T09:48:44;8.50;;;3.90;;
68951;SDS011;56000;51.146;17.112;2023-06-14T09:51:17;6.20;;;4.10;;
68951;SDS011;56000;51.146;17.112;2023-06-14T09:53:55;6.20;;;4.10;;
68951;SDS011;56000;51.146;17.112;2023-06-14T09:56:32;5.60;;;4.10;;
68951;SDS011;56000;51.146;17.112;2023-06-14T09:59:08;6.70;;;3.90;;
68951;SDS011;56000;51.146;17.112;2023-06-14T10:01:43;6.40;;;3.50;;
68951;SDS011;56000;51.146;17.112;2023-06-14T10:04:18;10.50;;;4.10;;
68951;SDS011;56000;51.146;17.112;2023-06-14T10:06:54;10.70;;;3.60;;
68951;SDS011;56000;51.146;17.112;2023-06-14T10:09:27;7.30;;;3.70;;
68951;SDS011;56000;51.146;17.112;2023-06-14T10:12:02;6.20;;;3.40;;
68951;SDS011;56000;51.146;17.112;2023-06-14T10:14:36;7.80;;;3.40;;
68951;SDS011;56000;51.146;17.112;2023-06-14T10:17:10;9.00;;;4.40;;
68951;SDS011;56000;51.146;17.112;2023-06-14T10:19:54;6.60;;;3.80;;
68951;SDS011;56000;51.146;17.112;2023-06-14T10:22:36;8.40;;;3.40;;
68951;SDS011;56000;51.146;17.112;2023-06-14T10:25:27;6.00;;;3.90;;
68951;SDS011;56000;51.146;17.112;2023-06-14T10:28:17;8.90;;;3.40;;
68951;SDS011;56000;51.146;17.112;2023-06-14T10:31:12;7.30;;;3.70;;
68951;SDS011;56000;51.146;17.112;2023-06-14T10:33:56;8.30;;;3.30;;
68951;SDS011;56000;51.146;17.112;2023-06-14T10:36:30;11.10;;;3.90;;
68951;SDS011;56000;51.146;17.112;2023-06-14T10:39:07;7.20;;;3.20;;
68951;SDS011;56000;51.146;17.112;2023-06-14T10:41:50;4.80;;;3.60;;
68951;SDS011;56000;51.146;17.112;2023-06-14T10:44:45;6.70;;;3.50;;
68951;SDS011;56000;51.146;17.112;2023-06-14T10:47:26;6.00;;;2.80;;
68951;SDS011;56000;51.146;17.112;2023-06-14T10:50:05;8.10;;;3.30;;
68951;SDS011;56000;51.146;17.112;2023-06-14T10:52:41;5.90;;;2.60;;
68951;SDS011;56000;51.146;17.112;2023-06-14T10:55:16;6.70;;;3.30;;
68951;SDS011;56000;51.146;17.112;2023-06-14T10:57:53;4.50;;;3.00;;
68951;SDS011;56000;51.146;17.112;2023-06-14T11:00:28;4.40;;;2.90;;
68951;SDS011;56000;51.146;17.112;2023-06-14T11:06:23;4.80;;;2.60;;
68951;SDS011;56000;51.146;17.112;2023-06-14T11:09:36;5.60;;;2.80;;
68951;SDS011;56000;51.146;17.112;2023-06-14T11:12:21;6.90;;;2.80;;
68951;SDS011;56000;51.146;17.112;2023-06-14T11:14:57;5.70;;;3.30;;
68951;SDS011;56000;51.146;17.112;2023-06-14T11:17:30;5.70;;;2.80;;
68951;SDS011;56000;51.146;17.112;2023-06-14T11:20:10;6.60;;;3.30;;
68951;SDS011;56000;51.146;17.112;2023-06-14T11:22:50;7.70;;;3.10;;
68951;SDS011;56000;51.146;17.112;2023-06-14T11:25:24;8.70;;;2.90;;
68951;SDS011;56000;51.146;17.112;2023-06-14T11:27:58;6.30;;;2.90;;
68951;SDS011;56000;51.146;17.112;2023-06-14T11:30:31;5.60;;;3.00;;
68951;SDS011;56000;51.146;17.112;2023-06-14T11:33:05;9.10;;;3.00;;
68951;SDS011;56000;51.146;17.112;2023-06-14T11:35:42;4.90;;;2.70;;
68951;SDS011;56000;51.146;17.112;2023-06-14T11:38:15;5.70;;;2.90;;
68951;SDS011;56000;51.146;17.112;2023-06-14T11:40:49;5.80;;;2.90;;
68951;SDS011;56000;51.146;17.112;2023-06-14T11:43:22;7.40;;;2.90;;
68951;SDS011;56000;51.146;17.112;2023-06-14T11:45:56;5.70;;;2.70;;
68951;SDS011;56000;51.146;17.112;2023-06-14T11:48:40;9.80;;;2.80;;
68951;SDS011;56000;51.146;17.112;2023-06-14T11:51:15;6.60;;;2.70;;
68951;SDS011;56000;51.146;17.112;2023-06-14T11:53:48;14.40;;;2.80;;
68951;SDS011;56000;51.146;17.112;2023-06-14T11:56:21;8.20;;;2.80;;
68951;SDS011;56000;51.146;17.112;2023-06-14T11:58:55;4.90;;;3.00;;
68951;SDS011;56000;51.146;17.112;2023-06-14T12:01:29;19.30;;;4.70;;
68951;SDS011;56000;51.146;17.112;2023-06-14T12:04:02;5.10;;;3.00;;
68951;SDS011;56000;51.146;17.112;2023-06-14T12:06:36;5.60;;;2.50;;
68951;SDS011;56000;51.146;17.112;2023-06-14T12:09:10;11.20;;;3.00;;
68951;SDS011;56000;51.146;17.112;2023-06-14T12:11:47;5.00;;;2.80;;
68951;SDS011;56000;51.146;17.112;2023-06-14T12:14:21;8.30;;;3.20;;
68951;SDS011;56000;51.146;17.112;2023-06-14T12:17:07;9.60;;;3.20;;
68951;SDS011;56000;51.146;17.112;2023-06-14T12:19:44;10.00;;;3.20;;
68951;SDS011;56000;51.146;17.112;2023-06-14T12:22:18;4.70;;;3.30;;
68951;SDS011;56000;51.146;17.112;2023-06-14T12:24:51;4.20;;;3.10;;
68951;SDS011;56000;51.146;17.112;2023-06-14T12:27:25;7.80;;;3.20;;
68951;SDS011;56000;51.146;17.112;2023-06-14T12:30:02;5.50;;;3.40;;
68951;SDS011;56000;51.146;17.112;2023-06-14T12:32:38;6.80;;;3.50;;
68951;SDS011;56000;51.146;17.112;2023-06-14T12:35:11;4.90;;;2.70;;
68951;SDS011;56000;51.146;17.112;2023-06-14T12:37:44;8.70;;;3.20;;
68951;SDS011;56000;51.146;17.112;2023-06-14T12:40:18;7.00;;;3.90;;
68951;SDS011;56000;51.146;17.112;2023-06-14T12:42:51;9.60;;;3.60;;
68951;SDS011;56000;51.146;17.112;2023-06-14T12:45:24;5.80;;;3.40;;
68951;SDS011;56000;51.146;17.112;2023-06-14T12:47:58;4.70;;;3.30;;
68951;SDS011;56000;51.146;17.112;2023-06-14T12:50:31;6.70;;;3.10;;
68951;SDS011;56000;51.146;17.112;2023-06-14T12:53:04;7.00;;;3.20;;
68951;SDS011;56000;51.146;17.112;2023-06-14T12:55:38;5.80;;;2.90;;
68951;SDS011;56000;51.146;17.112;2023-06-14T12:58:11;4.70;;;3.50;;
68951;SDS011;56000;51.146;17.112;2023-06-14T13:00:47;9.30;;;4.00;;
68951;SDS011;56000;51.146;17.112;2023-06-14T13:03:20;6.00;;;3.60;;
68951;SDS011;56000;51.146;17.112;2023-06-14T13:05:53;6.20;;;3.00;;
68951;SDS011;56000;51.146;17.112;2023-06-14T13:08:26;7.00;;;3.30;;
68951;SDS011;56000;51.146;17.112;2023-06-14T13:11:00;6.10;;;3.20;;
68951;SDS011;56000;51.146;17.112;2023-06-14T13:13:33;6.60;;;3.50;;
68951;SDS011;56000;51.146;17.112;2023-06-14T13:16:06;6.10;;;3.30;;
68951;SDS011;56000;51.146;17.112;2023-06-14T13:18:41;4.70;;;3.20;;
68951;SDS011;56000;51.146;17.112;2023-06-14T13:21:14;8.30;;;3.30;;
68951;SDS011;56000;51.146;17.112;2023-06-14T13:23:47;4.50;;;3.30;;
68951;SDS011;56000;51.146;17.112;2023-06-14T13:26:20;6.80;;;3.00;;
68951;SDS011;56000;51.146;17.112;2023-06-14T13:28:53;6.20;;;3.10;;
68951;SDS011;56000;51.146;17.112;2023-06-14T13:31:26;6.00;;;3.10;;
68951;SDS011;56000;51.146;17.112;2023-06-14T13:34:00;5.50;;;3.30;;
68951;SDS011;56000;51.146;17.112;2023-06-14T13:36:34;5.40;;;3.20;;
68951;SDS011;56000;51.146;17.112;2023-06-14T13:39:08;5.70;;;3.10;;
68951;SDS011;56000;51.146;17.112;2023-06-14T13:41:42;10.20;;;3.70;;
68951;SDS011;56000;51.146;17.112;2023-06-14T13:44:15;7.00;;;3.00;;
68951;SDS011;56000;51.146;17.112;2023-06-14T13:46:51;6.70;;;3.80;;
68951;SDS011;56000;51.146;17.112;2023-06-14T13:49:24;4.10;;;2.70;;
68951;SDS011;56000;51.146;17.112;2023-06-14T13:51:57;5.40;;;2.90;;
68951;SDS011;56000;51.146;17.112;2023-06-14T13:54:30;4.80;;;2.50;;
68951;SDS011;56000;51.146;17.112;2023-06-14T13:57:04;7.80;;;2.30;;
68951;SDS011;56000;51.146;17.112;2023-06-14T13:59:37;4.90;;;2.80;;
68951;SDS011;56000;51.146;17.112;2023-06-14T14:02:11;5.20;;;2.50;;
68951;SDS011;56000;51.146;17.112;2023-06-14T14:04:44;5.10;;;2.70;;
68951;SDS011;56000;51.146;17.112;2023-06-14T14:07:22;3.90;;;2.70;;
68951;SDS011;56000;51.146;17.112;2023-06-14T14:09:55;5.90;;;2.60;;
68951;SDS011;56000;51.146;17.112;2023-06-14T14:12:29;5.70;;;3.00;;
68951;SDS011;56000;51.146;17.112;2023-06-14T14:15:02;4.00;;;2.70;;
68951;SDS011;56000;51.146;17.112;2023-06-14T14:17:37;5.50;;;3.00;;
68951;SDS011;56000;51.146;17.112;2023-06-14T14:20:11;6.50;;;2.90;;
68951;SDS011;56000;51.146;17.112;2023-06-14T14:22:46;7.30;;;2.70;;
68951;SDS011;56000;51.146;17.112;2023-06-14T14:25:19;7.20;;;3.30;;
68951;SDS011;56000;51.146;17.112;2023-06-14T14:27:52;5.30;;;3.20;;
68951;SDS011;56000;51.146;17.112;2023-06-14T14:30:26;5.90;;;3.50;;
68951;SDS011;56000;51.146;17.112;2023-06-14T14:32:59;6.10;;;3.50;;
68951;SDS011;56000;51.146;17.112;2023-06-14T14:35:32;8.50;;;3.20;;
68951;SDS011;56000;51.146;17.112;2023-06-14T14:38:05;8.20;;;3.60;;
68951;SDS011;56000;51.146;17.112;2023-06-14T14:40:38;7.90;;;3.20;;
68951;SDS011;56000;51.146;17.112;2023-06-14T14:43:11;5.90;;;3.40;;
68951;SDS011;56000;51.146;17.112;2023-06-14T14:45:44;6.60;;;3.50;;
68951;SDS011;56000;51.146;17.112;2023-06-14T14:48:17;7.40;;;3.30;;
68951;SDS011;56000;51.146;17.112;2023-06-14T14:50:51;8.90;;;3.80;;
68951;SDS011;56000;51.146;17.112;2023-06-14T14:53:24;5.50;;;3.40;;
68951;SDS011;56000;51.146;17.112;2023-06-14T14:55:57;7.20;;;3.30;;
68951;SDS011;56000;51.146;17.112;2023-06-14T14:58:30;8.10;;;3.40;;
68951;SDS011;56000;51.146;17.112;2023-06-14T15:01:03;5.90;;;3.30;;
68951;SDS011;56000;51.146;17.112;2023-06-14T15:03:37;6.60;;;4.70;;
68951;SDS011;56000;51.146;17.112;2023-06-14T15:06:27;10.50;;;6.00;;
68951;SDS011;56000;51.146;17.112;2023-06-14T15:09:00;7.00;;;3.80;;
68951;SDS011;56000;51.146;17.112;2023-06-14T15:11:33;9.60;;;4.10;;
68951;SDS011;56000;51.146;17.112;2023-06-14T15:14:06;4.70;;;3.30;;
68951;SDS011;56000;51.146;17.112;2023-06-14T15:16:40;10.60;;;4.30;;